SWR12S LPPR-LSZH
Flight info
| Callsign | SWR12S |
|---|---|
| Flight time | 2h 1m |
| Altitude | 36000 |
| Route | BELDU DCT CANAR DCT ADORO DCT FITSE DCT DGO/N0447F380 DCT LPA DCT GOSVI DCT TOPTU DCT TOU DCT GAI DCT MEN DCT NINUN DCT LATAM DCT ETREK DCT LTP DCT SOPLO DCT OMASI DCT KINNI DCT SOSAL/N0426F320 DCT KORED N871 BERSU |
| Aircraft | A320/M-SDE3FGHIRWY/LB1 |
Departure
| Time | 2026-05-04 14:00 |
|---|---|
| Airport | Francisco de Sá Carneiro Airport (LPPR) |
Arrival
| Time | 2026-05-04 16:02 |
|---|---|
| Airport | Zürich Airport (LSZH) |
| Time | Latitude | Longitude | Altitude | Speed | Heading |
|---|---|---|---|---|---|
| 2026-05-04 13:33 | 41.23686 | -8.67249 | 243 ft | 0 kts | 78° |
| 2026-05-04 13:52 | 41.23685 | -8.67258 | 242 ft | 4 kts | 78° |
| 2026-05-04 13:52 | 41.23680 | -8.67290 | 242 ft | 4 kts | 79° |
| 2026-05-04 13:52 | 41.23677 | -8.67323 | 242 ft | 4 kts | 91° |
| 2026-05-04 13:53 | 41.23681 | -8.67351 | 242 ft | 4 kts | 139° |
| 2026-05-04 13:53 | 41.23685 | -8.67356 | 242 ft | 0 kts | 149° |
| 2026-05-04 13:55 | 41.23651 | -8.67350 | 242 ft | 4 kts | 217° |
| 2026-05-04 13:55 | 41.23634 | -8.67438 | 236 ft | 15 kts | 259° |
| 2026-05-04 13:56 | 41.23617 | -8.67572 | 240 ft | 13 kts | 259° |
| 2026-05-04 13:56 | 41.23606 | -8.67648 | 234 ft | 0 kts | 258° |
| 2026-05-04 13:57 | 41.23604 | -8.67656 | 233 ft | 3 kts | 258° |
| 2026-05-04 13:57 | 41.23599 | -8.67689 | 233 ft | 8 kts | 258° |
| 2026-05-04 13:58 | 41.23632 | -8.67816 | 229 ft | 0 kts | 346° |
| 2026-05-04 13:59 | 41.23686 | -8.67832 | 228 ft | 35 kts | 348° |
| 2026-05-04 13:59 | 41.25087 | -8.68205 | 188 ft | 159 kts | 350° |
| 2026-05-04 14:00 | 41.26262 | -8.68492 | 518 ft | 178 kts | 345° |
| 2026-05-04 14:00 | 41.28847 | -8.69232 | 1719 ft | 207 kts | 346° |
| 2026-05-04 14:00 | 41.30330 | -8.69666 | 2248 ft | 231 kts | 346° |
| 2026-05-04 14:01 | 41.31973 | -8.70093 | 2904 ft | 248 kts | 346° |
| 2026-05-04 14:01 | 41.33684 | -8.70518 | 3834 ft | 253 kts | 346° |
| 2026-05-04 14:01 | 41.37187 | -8.71395 | 5751 ft | 259 kts | 346° |
| 2026-05-04 14:02 | 41.38982 | -8.71789 | 6672 ft | 264 kts | 355° |
| 2026-05-04 14:02 | 41.40821 | -8.71361 | 7473 ft | 277 kts | 21° |
| 2026-05-04 14:02 | 41.42380 | -8.69800 | 8283 ft | 289 kts | 49° |
| 2026-05-04 14:02 | 41.43256 | -8.67362 | 9061 ft | 300 kts | 75° |
| 2026-05-04 14:03 | 41.43670 | -8.64627 | 9945 ft | 303 kts | 78° |
| 2026-05-04 14:03 | 41.43978 | -8.61819 | 10508 ft | 317 kts | 84° |
| 2026-05-04 14:03 | 41.44120 | -8.58819 | 10753 ft | 340 kts | 86° |
| 2026-05-04 14:03 | 41.44215 | -8.55597 | 11216 ft | 353 kts | 88° |
| 2026-05-04 14:04 | 41.44359 | -8.48963 | 12646 ft | 364 kts | 88° |
| 2026-05-04 14:04 | 41.44434 | -8.45574 | 13364 ft | 368 kts | 88° |
| 2026-05-04 14:04 | 41.44514 | -8.42146 | 14058 ft | 372 kts | 88° |
| 2026-05-04 14:05 | 41.44692 | -8.35157 | 15265 ft | 382 kts | 88° |
| 2026-05-04 14:05 | 41.44789 | -8.31606 | 15882 ft | 385 kts | 88° |
| 2026-05-04 14:05 | 41.44886 | -8.28013 | 16501 ft | 390 kts | 88° |
| 2026-05-04 14:06 | 41.44983 | -8.24383 | 17087 ft | 395 kts | 88° |
| 2026-05-04 14:06 | 41.45079 | -8.20701 | 17669 ft | 400 kts | 88° |
| 2026-05-04 14:06 | 41.45172 | -8.16977 | 18250 ft | 405 kts | 88° |
| 2026-05-04 14:06 | 41.45263 | -8.13200 | 18759 ft | 409 kts | 88° |
| 2026-05-04 14:07 | 41.45352 | -8.09388 | 19268 ft | 414 kts | 88° |
| 2026-05-04 14:07 | 41.45440 | -8.05544 | 19779 ft | 417 kts | 88° |
| 2026-05-04 14:07 | 41.45532 | -8.01612 | 20272 ft | 421 kts | 88° |
| 2026-05-04 14:07 | 41.45625 | -7.97742 | 20760 ft | 425 kts | 88° |
| 2026-05-04 14:08 | 41.45718 | -7.93800 | 21246 ft | 428 kts | 88° |
| 2026-05-04 14:08 | 41.45810 | -7.89810 | 21730 ft | 432 kts | 89° |
| 2026-05-04 14:08 | 41.45901 | -7.85793 | 22198 ft | 435 kts | 89° |
| 2026-05-04 14:08 | 41.45989 | -7.81739 | 22630 ft | 439 kts | 89° |
| 2026-05-04 14:09 | 41.46166 | -7.73527 | 23578 ft | 447 kts | 89° |
| 2026-05-04 14:09 | 41.46253 | -7.69372 | 23934 ft | 450 kts | 89° |
| 2026-05-04 14:10 | 41.46425 | -7.60973 | 24702 ft | 456 kts | 89° |
| 2026-05-04 14:10 | 41.46509 | -7.56734 | 25094 ft | 458 kts | 89° |
| 2026-05-04 14:10 | 41.46589 | -7.52482 | 25480 ft | 460 kts | 89° |
| 2026-05-04 14:10 | 41.46668 | -7.48207 | 25842 ft | 462 kts | 89° |
| 2026-05-04 14:11 | 41.46749 | -7.43901 | 26193 ft | 465 kts | 89° |
| 2026-05-04 14:11 | 41.46907 | -7.35226 | 26892 ft | 471 kts | 89° |
| 2026-05-04 14:11 | 41.46986 | -7.30856 | 27251 ft | 473 kts | 89° |
| 2026-05-04 14:12 | 41.47064 | -7.26457 | 27602 ft | 475 kts | 89° |
| 2026-05-04 14:12 | 41.47137 | -7.22032 | 27922 ft | 478 kts | 89° |
| 2026-05-04 14:12 | 41.47272 | -7.13135 | 28633 ft | 482 kts | 90° |
| 2026-05-04 14:13 | 41.47341 | -7.08652 | 28965 ft | 485 kts | 90° |
| 2026-05-04 14:13 | 41.47409 | -7.04141 | 29276 ft | 488 kts | 90° |
| 2026-05-04 14:13 | 41.47476 | -6.99604 | 29584 ft | 490 kts | 90° |
| 2026-05-04 14:13 | 41.47541 | -6.95046 | 29883 ft | 493 kts | 90° |
| 2026-05-04 14:14 | 41.47604 | -6.90468 | 30149 ft | 495 kts | 90° |
| 2026-05-04 14:14 | 41.47730 | -6.81310 | 30630 ft | 499 kts | 90° |
| 2026-05-04 14:14 | 41.47794 | -6.76613 | 30889 ft | 501 kts | 90° |
| 2026-05-04 14:15 | 41.47916 | -6.67364 | 31444 ft | 502 kts | 90° |
| 2026-05-04 14:15 | 41.48024 | -6.57988 | 31947 ft | 503 kts | 90° |
| 2026-05-04 14:16 | 41.48159 | -6.44081 | 31964 ft | 501 kts | 90° |
| 2026-05-04 14:17 | 41.48473 | -6.30164 | 31969 ft | 501 kts | 82° |
| 2026-05-04 14:17 | 41.50361 | -6.21244 | 31967 ft | 500 kts | 66° |
| 2026-05-04 14:18 | 41.51681 | -6.16947 | 32003 ft | 502 kts | 66° |
| 2026-05-04 14:18 | 41.54300 | -6.08319 | 32655 ft | 501 kts | 67° |
| 2026-05-04 14:19 | 41.56891 | -5.99687 | 33342 ft | 500 kts | 67° |
| 2026-05-04 14:19 | 41.58182 | -5.95388 | 33672 ft | 500 kts | 67° |
| 2026-05-04 14:19 | 41.59476 | -5.91078 | 33996 ft | 499 kts | 67° |
| 2026-05-04 14:19 | 41.60772 | -5.86764 | 34267 ft | 499 kts | 67° |
| 2026-05-04 14:20 | 41.62062 | -5.82461 | 34538 ft | 499 kts | 67° |
| 2026-05-04 14:20 | 41.63349 | -5.78159 | 34845 ft | 498 kts | 67° |
| 2026-05-04 14:20 | 41.64633 | -5.73859 | 35150 ft | 497 kts | 67° |
| 2026-05-04 14:21 | 41.67186 | -5.65285 | 35710 ft | 495 kts | 68° |
| 2026-05-04 14:21 | 41.68452 | -5.61013 | 35918 ft | 495 kts | 68° |
| 2026-05-04 14:21 | 41.70988 | -5.52475 | 35975 ft | 492 kts | 68° |
| 2026-05-04 14:22 | 41.73513 | -5.43957 | 35987 ft | 492 kts | 68° |
| 2026-05-04 14:22 | 41.76022 | -5.35436 | 35982 ft | 492 kts | 68° |
| 2026-05-04 14:23 | 41.79767 | -5.22651 | 35986 ft | 491 kts | 68° |
| 2026-05-04 14:24 | 41.82246 | -5.14186 | 35988 ft | 491 kts | 68° |
| 2026-05-04 14:24 | 41.84730 | -5.05663 | 35995 ft | 491 kts | 68° |
| 2026-05-04 14:25 | 41.87208 | -4.97125 | 35995 ft | 491 kts | 68° |
| 2026-05-04 14:25 | 41.90910 | -4.84323 | 36001 ft | 490 kts | 69° |
| 2026-05-04 14:26 | 41.93366 | -4.75794 | 35997 ft | 490 kts | 69° |
| 2026-05-04 14:26 | 41.95808 | -4.67257 | 35983 ft | 489 kts | 69° |
| 2026-05-04 14:27 | 41.98252 | -4.58715 | 35985 ft | 489 kts | 69° |
| 2026-05-04 14:27 | 42.00688 | -4.50177 | 35977 ft | 489 kts | 69° |
| 2026-05-04 14:28 | 42.03110 | -4.41638 | 35981 ft | 489 kts | 69° |
| 2026-05-04 14:28 | 42.05531 | -4.33094 | 35974 ft | 489 kts | 69° |
| 2026-05-04 14:29 | 42.10337 | -4.15988 | 35977 ft | 488 kts | 69° |
| 2026-05-04 14:30 | 42.12745 | -4.07429 | 36002 ft | 488 kts | 69° |
| 2026-05-04 14:31 | 42.16329 | -3.94596 | 35992 ft | 487 kts | 70° |
| 2026-05-04 14:32 | 42.21065 | -3.77494 | 35975 ft | 487 kts | 70° |
| 2026-05-04 14:32 | 42.23413 | -3.68988 | 36003 ft | 487 kts | 70° |
| 2026-05-04 14:33 | 42.25768 | -3.60413 | 36014 ft | 487 kts | 70° |
| 2026-05-04 14:33 | 42.28120 | -3.51832 | 36011 ft | 487 kts | 70° |
| 2026-05-04 14:34 | 42.30464 | -3.43249 | 36001 ft | 487 kts | 70° |
| 2026-05-04 14:34 | 42.32801 | -3.34651 | 35997 ft | 487 kts | 70° |
| 2026-05-04 14:35 | 42.35137 | -3.26051 | 35996 ft | 487 kts | 70° |
| 2026-05-04 14:35 | 42.37466 | -3.17453 | 36007 ft | 487 kts | 71° |
| 2026-05-04 14:36 | 42.39773 | -3.08854 | 36005 ft | 486 kts | 71° |
| 2026-05-04 14:36 | 42.42074 | -3.00265 | 36000 ft | 485 kts | 71° |
| 2026-05-04 14:37 | 42.44352 | -2.91669 | 36003 ft | 484 kts | 74° |
| 2026-05-04 14:37 | 42.45418 | -2.82740 | 36000 ft | 479 kts | 91° |
| 2026-05-04 14:38 | 42.45531 | -2.73733 | 35994 ft | 479 kts | 91° |
| 2026-05-04 14:38 | 42.45665 | -2.64728 | 35972 ft | 479 kts | 91° |
| 2026-05-04 14:39 | 42.45788 | -2.55717 | 35973 ft | 478 kts | 92° |
| 2026-05-04 14:39 | 42.45901 | -2.46717 | 35970 ft | 478 kts | 92° |
| 2026-05-04 14:40 | 42.46050 | -2.34739 | 35971 ft | 479 kts | 89° |
| 2026-05-04 14:40 | 42.47442 | -2.24394 | 35956 ft | 482 kts | 79° |
| 2026-05-04 14:41 | 42.48925 | -2.15533 | 35960 ft | 483 kts | 79° |
| 2026-05-04 14:42 | 42.51616 | -1.99212 | 35967 ft | 483 kts | 80° |
| 2026-05-04 14:42 | 42.53062 | -1.90373 | 35952 ft | 483 kts | 81° |
| 2026-05-04 14:43 | 42.54514 | -1.81475 | 35966 ft | 483 kts | 81° |
| 2026-05-04 14:43 | 42.55962 | -1.72571 | 35977 ft | 484 kts | 81° |
| 2026-05-04 14:44 | 42.57409 | -1.63645 | 35984 ft | 484 kts | 81° |
| 2026-05-04 14:44 | 42.58842 | -1.54720 | 35983 ft | 487 kts | 81° |
| 2026-05-04 14:45 | 42.60280 | -1.45666 | 36000 ft | 491 kts | 81° |
| 2026-05-04 14:45 | 42.61716 | -1.36613 | 36008 ft | 490 kts | 81° |
| 2026-05-04 14:46 | 42.63153 | -1.27569 | 35997 ft | 489 kts | 81° |
| 2026-05-04 14:46 | 42.64576 | -1.18536 | 35979 ft | 489 kts | 81° |
| 2026-05-04 14:47 | 42.65985 | -1.09521 | 35947 ft | 488 kts | 82° |
| 2026-05-04 14:47 | 42.67394 | -1.00505 | 35948 ft | 487 kts | 82° |
| 2026-05-04 14:48 | 42.68789 | -0.91488 | 35947 ft | 487 kts | 82° |
| 2026-05-04 14:48 | 42.70168 | -0.82483 | 35955 ft | 487 kts | 82° |
| 2026-05-04 14:49 | 42.71549 | -0.73466 | 35917 ft | 486 kts | 82° |
| 2026-05-04 14:49 | 42.72921 | -0.64477 | 35933 ft | 485 kts | 82° |
| 2026-05-04 14:50 | 42.74276 | -0.55489 | 35942 ft | 485 kts | 82° |
| 2026-05-04 14:50 | 42.75628 | -0.46511 | 35943 ft | 484 kts | 82° |
| 2026-05-04 14:51 | 42.76968 | -0.37525 | 35945 ft | 484 kts | 83° |
| 2026-05-04 14:51 | 42.78303 | -0.28537 | 35955 ft | 485 kts | 83° |
| 2026-05-04 14:52 | 42.80296 | -0.19736 | 35954 ft | 491 kts | 66° |
| 2026-05-04 14:52 | 42.84076 | -0.12041 | 35948 ft | 495 kts | 52° |
| 2026-05-04 14:53 | 42.88457 | -0.04791 | 35956 ft | 495 kts | 52° |
| 2026-05-04 14:53 | 42.92809 | 0.02489 | 35914 ft | 495 kts | 52° |
| 2026-05-04 14:54 | 42.97159 | 0.09776 | 35925 ft | 496 kts | 52° |
| 2026-05-04 14:54 | 43.01532 | 0.17099 | 35930 ft | 497 kts | 52° |
| 2026-05-04 14:55 | 43.05908 | 0.24446 | 35959 ft | 497 kts | 52° |
| 2026-05-04 14:55 | 43.10265 | 0.31795 | 35956 ft | 497 kts | 52° |
| 2026-05-04 14:56 | 43.14612 | 0.39137 | 35928 ft | 497 kts | 53° |
| 2026-05-04 14:56 | 43.18970 | 0.46500 | 35932 ft | 498 kts | 53° |
| 2026-05-04 14:57 | 43.23326 | 0.53891 | 35952 ft | 498 kts | 53° |
| 2026-05-04 14:57 | 43.27650 | 0.61246 | 35950 ft | 498 kts | 53° |
| 2026-05-04 14:58 | 43.31988 | 0.68651 | 35947 ft | 498 kts | 53° |
| 2026-05-04 14:58 | 43.36322 | 0.76059 | 35950 ft | 498 kts | 53° |
| 2026-05-04 14:59 | 43.40653 | 0.83486 | 35918 ft | 498 kts | 53° |
| 2026-05-04 15:00 | 43.47138 | 0.94648 | 35942 ft | 498 kts | 53° |
| 2026-05-04 15:00 | 43.51454 | 1.02106 | 35944 ft | 497 kts | 53° |
| 2026-05-04 15:01 | 43.57910 | 1.13296 | 35942 ft | 498 kts | 54° |
| 2026-05-04 15:01 | 43.62218 | 1.20766 | 35922 ft | 497 kts | 53° |
| 2026-05-04 15:02 | 43.66511 | 1.28229 | 35930 ft | 495 kts | 53° |
| 2026-05-04 15:02 | 43.70734 | 1.35722 | 35934 ft | 494 kts | 55° |
| 2026-05-04 15:03 | 43.74801 | 1.43375 | 35932 ft | 493 kts | 56° |
| 2026-05-04 15:03 | 43.78818 | 1.51059 | 35927 ft | 493 kts | 56° |
| 2026-05-04 15:04 | 43.82864 | 1.58717 | 35905 ft | 493 kts | 55° |
| 2026-05-04 15:04 | 43.86928 | 1.66367 | 35911 ft | 493 kts | 55° |
| 2026-05-04 15:05 | 43.90989 | 1.74021 | 35909 ft | 493 kts | 55° |
| 2026-05-04 15:05 | 43.95040 | 1.81704 | 35916 ft | 492 kts | 55° |
| 2026-05-04 15:06 | 43.99002 | 1.89441 | 35908 ft | 492 kts | 57° |
| 2026-05-04 15:07 | 44.04806 | 2.01218 | 35905 ft | 493 kts | 57° |
| 2026-05-04 15:07 | 44.08684 | 2.09099 | 35904 ft | 493 kts | 57° |
| 2026-05-04 15:08 | 44.12556 | 2.16908 | 35908 ft | 493 kts | 57° |
| 2026-05-04 15:08 | 44.16453 | 2.24773 | 35919 ft | 493 kts | 57° |
| 2026-05-04 15:09 | 44.20335 | 2.32656 | 35902 ft | 494 kts | 57° |
| 2026-05-04 15:09 | 44.24207 | 2.40566 | 35908 ft | 494 kts | 57° |
| 2026-05-04 15:10 | 44.30036 | 2.52454 | 35934 ft | 495 kts | 57° |
| 2026-05-04 15:11 | 44.35847 | 2.64374 | 35941 ft | 495 kts | 57° |
| 2026-05-04 15:11 | 44.39715 | 2.72341 | 35934 ft | 495 kts | 57° |
| 2026-05-04 15:12 | 44.43587 | 2.80329 | 35938 ft | 496 kts | 57° |
| 2026-05-04 15:12 | 44.47448 | 2.88324 | 35937 ft | 496 kts | 57° |
| 2026-05-04 15:13 | 44.51307 | 2.96348 | 35950 ft | 497 kts | 57° |
| 2026-05-04 15:13 | 44.55167 | 3.04383 | 35951 ft | 497 kts | 57° |
| 2026-05-04 15:14 | 44.59023 | 3.12427 | 35952 ft | 497 kts | 57° |
| 2026-05-04 15:14 | 44.62744 | 3.20509 | 35953 ft | 496 kts | 60° |
| 2026-05-04 15:15 | 44.66126 | 3.28944 | 35962 ft | 496 kts | 63° |
| 2026-05-04 15:15 | 44.69384 | 3.37484 | 35966 ft | 496 kts | 63° |
| 2026-05-04 15:16 | 44.74394 | 3.50211 | 35969 ft | 496 kts | 62° |
| 2026-05-04 15:17 | 44.79489 | 3.62899 | 35972 ft | 496 kts | 62° |
| 2026-05-04 15:17 | 44.84527 | 3.75632 | 35974 ft | 496 kts | 63° |
| 2026-05-04 15:18 | 44.87873 | 3.84149 | 35962 ft | 496 kts | 63° |
| 2026-05-04 15:19 | 44.92888 | 3.96937 | 35989 ft | 497 kts | 63° |
| 2026-05-04 15:19 | 44.97892 | 4.09761 | 35996 ft | 497 kts | 63° |
| 2026-05-04 15:20 | 45.01215 | 4.18310 | 36008 ft | 496 kts | 63° |
| 2026-05-04 15:20 | 45.04532 | 4.26869 | 35986 ft | 496 kts | 63° |
| 2026-05-04 15:21 | 45.07826 | 4.35381 | 35994 ft | 497 kts | 63° |
| 2026-05-04 15:22 | 45.12803 | 4.48267 | 36024 ft | 497 kts | 63° |
| 2026-05-04 15:22 | 45.17732 | 4.61166 | 36023 ft | 496 kts | 63° |
| 2026-05-04 15:23 | 45.21013 | 4.69774 | 36007 ft | 496 kts | 63° |
| 2026-05-04 15:23 | 45.23742 | 4.76920 | 36010 ft | 496 kts | 63° |
| 2026-05-04 15:24 | 45.30275 | 4.94162 | 36042 ft | 495 kts | 63° |
| 2026-05-04 15:25 | 45.33550 | 5.02836 | 36045 ft | 494 kts | 63° |
| 2026-05-04 15:26 | 45.38392 | 5.15720 | 36028 ft | 494 kts | 63° |
| 2026-05-04 15:26 | 45.43230 | 5.28672 | 36034 ft | 494 kts | 63° |
| 2026-05-04 15:27 | 45.48185 | 5.41567 | 36049 ft | 494 kts | 56° |
| 2026-05-04 15:28 | 45.52766 | 5.48814 | 36030 ft | 491 kts | 40° |
| 2026-05-04 15:28 | 45.55317 | 5.52049 | 36032 ft | 491 kts | 40° |
| 2026-05-04 15:29 | 45.62952 | 5.61812 | 36042 ft | 491 kts | 40° |
| 2026-05-04 15:30 | 45.80704 | 5.84632 | 36067 ft | 490 kts | 40° |
| 2026-05-04 15:31 | 45.88310 | 5.94433 | 36055 ft | 489 kts | 40° |
| 2026-05-04 15:32 | 46.00951 | 6.10795 | 36081 ft | 489 kts | 41° |
| 2026-05-04 15:34 | 46.13438 | 6.27396 | 36073 ft | 489 kts | 44° |
| 2026-05-04 15:34 | 46.20638 | 6.37830 | 35782 ft | 489 kts | 45° |
| 2026-05-04 15:35 | 46.25437 | 6.44740 | 35254 ft | 486 kts | 44° |
| 2026-05-04 15:35 | 46.27843 | 6.48174 | 35015 ft | 485 kts | 44° |
| 2026-05-04 15:35 | 46.30219 | 6.51563 | 34778 ft | 486 kts | 44° |
| 2026-05-04 15:36 | 46.35027 | 6.58433 | 34300 ft | 486 kts | 45° |
| 2026-05-04 15:36 | 46.37429 | 6.61879 | 34059 ft | 486 kts | 45° |
| 2026-05-04 15:36 | 46.39825 | 6.65328 | 33793 ft | 486 kts | 45° |
| 2026-05-04 15:37 | 46.42221 | 6.68781 | 33521 ft | 485 kts | 45° |
| 2026-05-04 15:37 | 46.44610 | 6.72227 | 32849 ft | 484 kts | 45° |
| 2026-05-04 15:37 | 46.46986 | 6.75656 | 32239 ft | 480 kts | 46° |
| 2026-05-04 15:37 | 46.49343 | 6.79064 | 31594 ft | 476 kts | 46° |
| 2026-05-04 15:38 | 46.51682 | 6.82446 | 30949 ft | 473 kts | 46° |
| 2026-05-04 15:38 | 46.54003 | 6.85810 | 30343 ft | 469 kts | 47° |
| 2026-05-04 15:38 | 46.56245 | 6.89221 | 29708 ft | 463 kts | 52° |
| 2026-05-04 15:38 | 46.58255 | 6.92831 | 29158 ft | 456 kts | 53° |
| 2026-05-04 15:39 | 46.60238 | 6.96401 | 28593 ft | 451 kts | 53° |
| 2026-05-04 15:39 | 46.62201 | 6.99927 | 28066 ft | 446 kts | 53° |
| 2026-05-04 15:39 | 46.66054 | 7.06859 | 26989 ft | 436 kts | 53° |
| 2026-05-04 15:40 | 46.67952 | 7.10287 | 26477 ft | 431 kts | 53° |
| 2026-05-04 15:40 | 46.69825 | 7.13675 | 25978 ft | 427 kts | 53° |
| 2026-05-04 15:40 | 46.71677 | 7.17033 | 25498 ft | 423 kts | 53° |
| 2026-05-04 15:40 | 46.73507 | 7.20353 | 25025 ft | 419 kts | 53° |
| 2026-05-04 15:41 | 46.75300 | 7.23613 | 24559 ft | 416 kts | 53° |
| 2026-05-04 15:41 | 46.77103 | 7.26898 | 24072 ft | 413 kts | 53° |
| 2026-05-04 15:41 | 46.78890 | 7.30154 | 23592 ft | 410 kts | 53° |
| 2026-05-04 15:41 | 46.80670 | 7.33402 | 23067 ft | 407 kts | 53° |
| 2026-05-04 15:42 | 46.82423 | 7.36602 | 22589 ft | 402 kts | 53° |
| 2026-05-04 15:42 | 46.84162 | 7.39780 | 22124 ft | 398 kts | 52° |
| 2026-05-04 15:42 | 46.85889 | 7.42939 | 21645 ft | 396 kts | 52° |
| 2026-05-04 15:42 | 46.87599 | 7.46069 | 21169 ft | 394 kts | 52° |
| 2026-05-04 15:43 | 46.89303 | 7.49199 | 20676 ft | 392 kts | 52° |
| 2026-05-04 15:43 | 46.90996 | 7.52316 | 20203 ft | 391 kts | 52° |
| 2026-05-04 15:43 | 46.92685 | 7.55428 | 19710 ft | 390 kts | 52° |
| 2026-05-04 15:43 | 46.94373 | 7.58538 | 19227 ft | 390 kts | 52° |
| 2026-05-04 15:44 | 46.96059 | 7.61651 | 18737 ft | 390 kts | 52° |
| 2026-05-04 15:44 | 46.97739 | 7.64762 | 18246 ft | 389 kts | 52° |
| 2026-05-04 15:44 | 46.99413 | 7.67865 | 17725 ft | 387 kts | 52° |
| 2026-05-04 15:44 | 47.01076 | 7.70945 | 17257 ft | 384 kts | 52° |
| 2026-05-04 15:45 | 47.02728 | 7.74002 | 16778 ft | 382 kts | 52° |
| 2026-05-04 15:45 | 47.04375 | 7.77052 | 16299 ft | 380 kts | 52° |
| 2026-05-04 15:45 | 47.06013 | 7.80089 | 15831 ft | 378 kts | 52° |
| 2026-05-04 15:45 | 47.07637 | 7.83104 | 15378 ft | 376 kts | 52° |
| 2026-05-04 15:46 | 47.09253 | 7.86113 | 14901 ft | 374 kts | 52° |
| 2026-05-04 15:46 | 47.10837 | 7.89067 | 14456 ft | 372 kts | 52° |
| 2026-05-04 15:46 | 47.12436 | 7.92048 | 13996 ft | 371 kts | 53° |
| 2026-05-04 15:46 | 47.13874 | 7.95167 | 13477 ft | 367 kts | 64° |
| 2026-05-04 15:47 | 47.14964 | 7.98527 | 13005 ft | 363 kts | 67° |
| 2026-05-04 15:47 | 47.16030 | 8.01870 | 12537 ft | 359 kts | 67° |
| 2026-05-04 15:47 | 47.17089 | 8.05184 | 12072 ft | 356 kts | 66° |
| 2026-05-04 15:47 | 47.18140 | 8.08462 | 11597 ft | 353 kts | 67° |
| 2026-05-04 15:48 | 47.19183 | 8.11717 | 11187 ft | 349 kts | 67° |
| 2026-05-04 15:48 | 47.20222 | 8.14854 | 11104 ft | 335 kts | 62° |
| 2026-05-04 15:48 | 47.23493 | 8.19255 | 10953 ft | 313 kts | 23° |
| 2026-05-04 15:49 | 47.25575 | 8.20007 | 10890 ft | 309 kts | 2° |
| 2026-05-04 15:49 | 47.27731 | 8.20016 | 10824 ft | 310 kts | 358° |
| 2026-05-04 15:49 | 47.29886 | 8.19976 | 10758 ft | 310 kts | 358° |
| 2026-05-04 15:49 | 47.32038 | 8.19928 | 10694 ft | 309 kts | 359° |
| 2026-05-04 15:50 | 47.34189 | 8.19878 | 10629 ft | 309 kts | 359° |
| 2026-05-04 15:50 | 47.36334 | 8.19832 | 10562 ft | 308 kts | 359° |
| 2026-05-04 15:50 | 47.38446 | 8.19791 | 10492 ft | 308 kts | 359° |
| 2026-05-04 15:50 | 47.40577 | 8.19752 | 10253 ft | 303 kts | 359° |
| 2026-05-04 15:51 | 47.42664 | 8.19717 | 10013 ft | 298 kts | 1° |
| 2026-05-04 15:51 | 47.44686 | 8.20161 | 9871 ft | 292 kts | 18° |
| 2026-05-04 15:51 | 47.46520 | 8.21402 | 9737 ft | 289 kts | 35° |
| 2026-05-04 15:51 | 47.48033 | 8.23320 | 9603 ft | 286 kts | 52° |
| 2026-05-04 15:52 | 47.49131 | 8.25738 | 9469 ft | 282 kts | 64° |
| 2026-05-04 15:52 | 47.50312 | 8.28054 | 9342 ft | 286 kts | 39° |
| 2026-05-04 15:52 | 47.52131 | 8.29158 | 9211 ft | 286 kts | 5° |
| 2026-05-04 15:52 | 47.54060 | 8.28622 | 9083 ft | 286 kts | 330° |
| 2026-05-04 15:53 | 47.55533 | 8.26704 | 8953 ft | 283 kts | 306° |
| 2026-05-04 15:53 | 47.56688 | 8.24347 | 8822 ft | 283 kts | 304° |
| 2026-05-04 15:53 | 47.57829 | 8.21977 | 8693 ft | 282 kts | 304° |
| 2026-05-04 15:53 | 47.58955 | 8.19637 | 8554 ft | 274 kts | 304° |
| 2026-05-04 15:54 | 47.60198 | 8.17579 | 8423 ft | 266 kts | 327° |
| 2026-05-04 15:54 | 47.61907 | 8.16824 | 8295 ft | 254 kts | 3° |
| 2026-05-04 15:54 | 47.63560 | 8.17486 | 8166 ft | 243 kts | 32° |
| 2026-05-04 15:54 | 47.64832 | 8.19061 | 7956 ft | 239 kts | 50° |
| 2026-05-04 15:55 | 47.65966 | 8.20900 | 7600 ft | 244 kts | 49° |
| 2026-05-04 15:55 | 47.67062 | 8.22787 | 7217 ft | 239 kts | 62° |
| 2026-05-04 15:55 | 47.67531 | 8.25063 | 6860 ft | 228 kts | 92° |
| 2026-05-04 15:55 | 47.67164 | 8.27279 | 6538 ft | 220 kts | 122° |
| 2026-05-04 15:56 | 47.66171 | 8.28956 | 6226 ft | 214 kts | 138° |
| 2026-05-04 15:56 | 47.65099 | 8.30422 | 5920 ft | 204 kts | 138° |
| 2026-05-04 15:56 | 47.64081 | 8.31821 | 5626 ft | 194 kts | 138° |
| 2026-05-04 15:56 | 47.63114 | 8.33152 | 5364 ft | 185 kts | 138° |
| 2026-05-04 15:57 | 47.62191 | 8.34423 | 5121 ft | 178 kts | 138° |
| 2026-05-04 15:57 | 47.61307 | 8.35640 | 4920 ft | 168 kts | 138° |
| 2026-05-04 15:57 | 47.60469 | 8.36794 | 4681 ft | 160 kts | 138° |
| 2026-05-04 15:57 | 47.59675 | 8.37886 | 4464 ft | 153 kts | 138° |
| 2026-05-04 15:58 | 47.58903 | 8.38948 | 4263 ft | 150 kts | 138° |
| 2026-05-04 15:58 | 47.58136 | 8.40001 | 4058 ft | 150 kts | 139° |
| 2026-05-04 15:58 | 47.57372 | 8.41051 | 3854 ft | 150 kts | 138° |
| 2026-05-04 15:58 | 47.56612 | 8.42095 | 3665 ft | 148 kts | 139° |
| 2026-05-04 15:59 | 47.55857 | 8.43130 | 3466 ft | 147 kts | 140° |
| 2026-05-04 15:59 | 47.55101 | 8.44167 | 3292 ft | 149 kts | 141° |
| 2026-05-04 15:59 | 47.54337 | 8.45216 | 3075 ft | 149 kts | 142° |
| 2026-05-04 15:59 | 47.53603 | 8.46260 | 2867 ft | 149 kts | 139° |
| 2026-05-04 16:00 | 47.52840 | 8.47330 | 2753 ft | 150 kts | 142° |
| 2026-05-04 16:00 | 47.52067 | 8.48370 | 2514 ft | 151 kts | 142° |
| 2026-05-04 16:00 | 47.51296 | 8.49389 | 2228 ft | 148 kts | 142° |
| 2026-05-04 16:00 | 47.50539 | 8.50408 | 2045 ft | 146 kts | 138° |
| 2026-05-04 16:01 | 47.49800 | 8.51438 | 1892 ft | 146 kts | 140° |
| 2026-05-04 16:01 | 47.49054 | 8.52467 | 1684 ft | 148 kts | 138° |
| 2026-05-04 16:01 | 47.48294 | 8.53509 | 1475 ft | 149 kts | 141° |
| 2026-05-04 16:01 | 47.47566 | 8.54487 | 1396 ft | 128 kts | 137° |
| 2026-05-04 16:02 | 47.47038 | 8.55205 | 1385 ft | 79 kts | 137° |
| 2026-05-04 16:02 | 47.46729 | 8.55608 | 1397 ft | 46 kts | 149° |
| 2026-05-04 16:02 | 47.46453 | 8.55726 | 1403 ft | 0 kts | 167° |
| 2026-05-04 16:03 | 47.46452 | 8.55727 | 1406 ft | 1 kts | 167° |
| 2026-05-04 16:03 | 47.46442 | 8.55730 | 1404 ft | 1 kts | 167° |
| 2026-05-04 16:03 | 47.46432 | 8.55733 | 1399 ft | 4 kts | 167° |
| 2026-05-04 16:03 | 47.46390 | 8.55755 | 1398 ft | 7 kts | 153° |
| 2026-05-04 16:04 | 47.46359 | 8.55789 | 1404 ft | 4 kts | 136° |
| 2026-05-04 16:04 | 47.46301 | 8.55871 | 1409 ft | 6 kts | 137° |
| 2026-05-04 16:04 | 47.46269 | 8.55915 | 1406 ft | 11 kts | 137° |
| 2026-05-04 16:05 | 47.46188 | 8.56000 | 1406 ft | 14 kts | 169° |
| 2026-05-04 16:05 | 47.46084 | 8.55988 | 1407 ft | 16 kts | 188° |
| 2026-05-04 16:05 | 47.45844 | 8.55904 | 1411 ft | 18 kts | 200° |
| 2026-05-04 16:06 | 47.45721 | 8.55870 | 1409 ft | 19 kts | 187° |
| 2026-05-04 16:06 | 47.45484 | 8.55952 | 1410 ft | 10 kts | 147° |
| 2026-05-04 16:07 | 47.45437 | 8.55950 | 1407 ft | 6 kts | 186° |
| 2026-05-04 16:07 | 47.45409 | 8.55946 | 1407 ft | 0 kts | 185° |